Time;durP1;ratioP1;P1;durP2;ratioP2;P2;SDS_P1;SDS_P2;PMS_P1;PMS_P2;Temp;Humidity;BMP_temperature;BMP_pressure;BME280_temperature;BME280_humidity;BME280_pressure;Samples;Min_cycle;Max_cycle;Signal;HPM_P1;HPM_P2
2022/06/22 00:02:19;;;;;;;12.47;6.60;;;11.30;1.00;;;;;;5029759;28;20520;-52
2022/06/22 00:05:07;;;;;;;9.80;7.00;;;11.30;1.00;;;;;;5029205;28;20426;-52
2022/06/22 00:07:45;;;;;;;11.80;8.27;;;11.30;1.00;;;;;;5022927;28;20424;-52
2022/06/22 00:10:19;;;;;;;19.73;10.17;;;11.30;1.00;;;;;;5028781;28;20506;-52
2022/06/22 00:12:49;;;;;;;14.50;8.40;;;11.20;1.00;;;;;;5025791;28;20434;-52
2022/06/22 00:15:34;;;;;;;16.63;8.77;;;11.20;1.00;;;;;;5022051;28;20442;-52
2022/06/22 00:18:02;;;;;;;18.80;9.63;;;11.20;1.00;;;;;;5027395;28;20535;-52
2022/06/22 00:20:32;;;;;;;20.30;10.13;;;11.10;1.00;;;;;;5026307;28;20549;-52
2022/06/22 00:23:21;;;;;;;17.27;9.97;;;11.20;1.00;;;;;;5029407;28;20425;-52
2022/06/22 00:25:47;;;;;;;30.80;18.10;;;11.20;1.00;;;;;;5031039;28;20430;-52
2022/06/22 00:28:36;;;;;;;36.17;22.93;;;11.10;1.00;;;;;;5033979;28;20828;-52
2022/06/22 00:31:23;;;;;;;36.60;21.00;;;11.10;7.30;;;;;;5033142;28;20197;-51
2022/06/22 00:34:10;;;;;;;21.23;14.80;;;11.10;1.00;;;;;;5033999;28;20437;-52
2022/06/22 00:36:42;;;;;;;15.73;10.80;;;11.10;5.20;;;;;;5031516;28;20536;-51
2022/06/22 00:39:31;;;;;;;12.50;8.53;;;11.00;99.90;;;;;;5031942;28;20576;-59
2022/06/22 00:42:15;;;;;;;12.77;7.80;;;11.00;99.90;;;;;;5031682;28;20472;-52
2022/06/22 00:44:46;;;;;;;12.40;8.20;;;11.00;99.90;;;;;;5032588;28;20516;-51
2022/06/22 00:47:29;;;;;;;10.70;7.47;;;11.00;1.00;;;;;;5032742;28;20438;-53
2022/06/22 00:50:01;;;;;;;11.10;7.63;;;10.90;1.00;;;;;;5038506;28;20430;-52
2022/06/22 00:52:35;;;;;;;14.57;8.30;;;10.90;1.00;;;;;;5028317;28;20445;-52
2022/06/22 00:55:03;;;;;;;10.17;8.03;;;10.90;1.00;;;;;;5032041;28;20449;-52
2022/06/22 00:57:35;;;;;;;10.03;6.93;;;10.80;1.00;;;;;;5030964;28;20441;-52
2022/06/22 01:00:05;;;;;;;9.03;7.40;;;10.80;1.00;;;;;;5031095;28;20990;-52
2022/06/22 01:02:52;;;;;;;14.20;8.37;;;10.70;1.00;;;;;;5027180;28;20441;-52
2022/06/22 01:05:28;;;;;;;14.93;8.00;;;10.70;1.00;;;;;;5028039;28;21119;-52
2022/06/22 01:08:04;;;;;;;15.13;8.00;;;10.70;1.00;;;;;;5032453;28;20440;-52
2022/06/22 01:10:33;;;;;;;10.80;8.13;;;10.70;1.00;;;;;;5029529;28;20448;-52
2022/06/22 01:13:18;;;;;;;12.37;7.93;;;10.60;1.00;;;;;;5032677;28;20508;-52
2022/06/22 01:16:20;;;;;;;11.03;8.27;;;10.60;27.50;;;;;;5027949;28;20445;-52
2022/06/22 01:18:58;;;;;;;16.60;8.87;;;10.50;79.40;;;;;;5020392;28;20865;-52
2022/06/22 01:21:30;;;;;;;11.00;7.97;;;10.50;99.90;;;;;;5031748;28;20475;-52
2022/06/22 01:24:13;;;;;;;11.53;8.70;;;10.50;99.90;;;;;;5029021;28;20441;-52
2022/06/22 01:27:16;;;;;;;13.53;8.00;;;10.40;99.90;;;;;;5030833;28;20442;-52
2022/06/22 01:29:56;;;;;;;10.77;7.77;;;10.50;99.90;;;;;;5028466;28;20464;-52
2022/06/22 01:32:28;;;;;;;20.00;8.97;;;10.50;99.90;;;;;;5030750;28;20519;-52
2022/06/22 01:34:56;;;;;;;11.03;8.43;;;10.40;99.90;;;;;;5031045;28;20445;-52
2022/06/22 01:37:26;;;;;;;15.10;8.87;;;10.40;99.90;;;;;;5029114;28;20434;-52
2022/06/22 01:40:00;;;;;;;11.30;8.67;;;10.30;1.00;;;;;;5029311;28;20442;-52
2022/06/22 01:42:39;;;;;;;16.17;8.90;;;10.30;1.00;;;;;;5030339;28;20464;-52
2022/06/22 01:45:39;;;;;;;17.50;10.00;;;10.20;1.00;;;;;;5030031;28;20497;-52
2022/06/22 01:48:17;;;;;;;12.13;9.70;;;10.30;99.90;;;;;;5023872;28;20933;-52
2022/06/22 01:50:47;;;;;;;13.63;8.73;;;10.30;99.90;;;;;;5044312;28;20441;-52
2022/06/22 01:53:18;;;;;;;10.10;7.93;;;10.30;1.00;;;;;;5028944;28;20447;-52
2022/06/22 01:56:03;;;;;;;20.83;10.00;;;10.20;99.90;;;;;;5030386;28;20868;-52
2022/06/22 01:58:53;;;;;;;17.67;10.03;;;10.20;1.00;;;;;;5028838;28;20903;-52
2022/06/22 02:01:34;;;;;;;13.10;9.13;;;10.10;1.00;;;;;;5032157;28;20491;-52
2022/06/22 02:04:05;;;;;;;16.40;9.97;;;10.10;1.00;;;;;;5029515;28;20437;-52
2022/06/22 02:10:05;;;;;;;11.60;9.20;;;10.10;99.90;;;;;;5029762;28;20961;-52
2022/06/22 02:12:47;;;;;;;15.57;9.30;;;10.10;46.90;;;;;;5030044;28;20553;-52
2022/06/22 02:15:25;;;;;;;15.23;9.30;;;10.00;99.90;;;;;;5030978;28;20494;-53
2022/06/22 02:17:53;;;;;;;14.10;9.23;;;10.00;99.90;;;;;;5029529;28;20949;-52
2022/06/22 02:20:18;;;;;;;14.03;9.97;;;10.00;99.90;;;;;;5030931;28;20461;-52
2022/06/22 02:22:50;;;;;;;14.20;10.00;;;10.00;1.00;;;;;;5027327;28;20415;-52
2022/06/22 02:25:18;;;;;;;15.03;8.80;;;10.00;99.90;;;;;;5031211;28;20567;-52
2022/06/22 02:27:43;;;;;;;13.90;9.53;;;9.90;1.00;;;;;;5029317;28;20443;-52
2022/06/22 02:30:10;;;;;;;17.80;8.63;;;9.90;99.90;;;;;;5030598;28;20446;-52
2022/06/22 02:32:42;;;;;;;16.50;10.43;;;9.80;1.00;;;;;;5031472;28;20313;-52
2022/06/22 02:35:10;;;;;;;14.20;10.47;;;9.80;99.90;;;;;;5030175;28;20524;-52
2022/06/22 02:37:44;;;;;;;18.07;9.70;;;9.80;39.90;;;;;;5030848;28;20440;-52
2022/06/22 02:40:17;;;;;;;19.20;10.03;;;9.80;34.00;;;;;;5029274;28;20526;-52
2022/06/22 02:45:28;;;;;;;12.57;9.30;;;9.70;32.70;;;;;;5030846;28;20472;-52
2022/06/22 02:47:58;;;;;;;13.97;9.67;;;9.70;1.00;;;;;;5028891;28;20438;-52
2022/06/22 02:50:59;;;;;;;10.90;8.57;;;9.70;99.90;;;;;;5028343;28;20865;-54
2022/06/22 02:53:30;;;;;;;18.90;10.70;;;9.60;99.90;;;;;;5026914;28;20457;-52
2022/06/22 02:55:56;;;;;;;16.53;10.47;;;9.60;1.00;;;;;;5021308;28;20445;-52
2022/06/22 02:58:26;;;;;;;19.00;10.50;;;9.50;99.90;;;;;;5027769;28;20555;-52
2022/06/22 03:00:52;;;;;;;13.90;9.93;;;9.50;99.90;;;;;;5029658;28;20465;-52
2022/06/22 03:03:18;;;;;;;16.60;10.90;;;9.50;99.90;;;;;;5028782;28;20456;-57
2022/06/22 03:05:48;;;;;;;17.60;9.40;;;9.50;1.00;;;;;;5029785;28;20465;-52
2022/06/22 03:08:15;;;;;;;13.90;10.97;;;9.50;1.00;;;;;;5029076;28;20191;-52
2022/06/22 03:10:54;;;;;;;13.13;10.07;;;9.50;1.00;;;;;;5026016;28;20453;-52
2022/06/22 03:13:28;;;;;;;17.43;10.33;;;9.40;99.90;;;;;;5030148;28;20793;-52
2022/06/22 03:15:55;;;;;;;15.40;10.30;;;9.40;26.30;;;;;;5026732;28;20477;-52
2022/06/22 03:18:26;;;;;;;11.60;9.90;;;9.40;99.90;;;;;;5029606;28;20452;-55
2022/06/22 03:21:13;;;;;;;14.63;10.37;;;9.40;99.90;;;;;;5019968;28;20471;-52
2022/06/22 03:24:01;;;;;;;17.23;11.33;;;9.40;99.90;;;;;;5029632;28;20919;-53
2022/06/22 03:26:50;;;;;;;17.33;10.23;;;9.40;1.00;;;;;;5027103;28;20440;-53
2022/06/22 03:29:31;;;;;;;13.50;9.50;;;9.40;99.90;;;;;;5025315;28;20469;-52
2022/06/22 03:32:07;;;;;;;12.40;9.83;;;9.30;99.90;;;;;;5028003;28;20484;-52
2022/06/22 03:34:41;;;;;;;14.20;10.07;;;9.30;1.00;;;;;;5027014;28;20472;-53
2022/06/22 03:37:10;;;;;;;18.17;10.50;;;9.30;1.00;;;;;;5027590;28;20964;-53
2022/06/22 03:39:41;;;;;;;16.40;11.30;;;9.30;1.00;;;;;;5029158;28;20494;-52
2022/06/22 03:42:16;;;;;;;21.23;12.87;;;9.30;1.00;;;;;;5025507;28;20474;-52
2022/06/22 03:44:50;;;;;;;17.80;10.97;;;9.30;1.00;;;;;;5028890;28;20484;-52
2022/06/22 03:47:21;;;;;;;20.83;12.57;;;9.40;99.90;;;;;;5030551;28;20903;-52
2022/06/22 03:49:56;;;;;;;19.53;12.80;;;9.50;31.80;;;;;;5030772;28;20442;-52
2022/06/22 03:52:47;;;;;;;18.83;12.13;;;9.50;1.00;;;;;;5030048;28;20511;-52
2022/06/22 03:55:18;;;;;;;23.40;12.00;;;9.60;99.90;;;;;;5031226;28;20440;-53
2022/06/22 03:57:49;;;;;;;23.13;13.37;;;9.60;1.00;;;;;;5031567;28;20528;-52
2022/06/22 04:00:15;;;;;;;16.90;11.90;;;9.70;1.00;;;;;;5031460;28;20565;-52
2022/06/22 04:02:41;;;;;;;15.20;11.97;;;9.70;27.40;;;;;;5035646;28;20465;-52
2022/06/22 04:05:16;;;;;;;23.23;12.77;;;9.70;1.00;;;;;;5032497;28;20442;-52
2022/06/22 04:07:42;;;;;;;23.93;14.03;;;9.80;1.00;;;;;;5035506;28;20428;-53
2022/06/22 04:10:41;;;;;;;21.40;13.30;;;9.80;1.00;;;;;;5032735;28;20429;-52
2022/06/22 04:13:16;;;;;;;19.57;12.00;;;9.90;1.00;;;;;;5031352;28;20684;-52
2022/06/22 04:15:58;;;;;;;19.87;12.57;;;10.00;32.60;;;;;;5034113;28;20445;-52
2022/06/22 04:18:31;;;;;;;19.00;12.13;;;10.10;1.00;;;;;;5032520;28;20903;-54
2022/06/22 04:21:03;;;;;;;20.70;13.97;;;10.20;19.70;;;;;;5027994;28;20564;-53
2022/06/22 04:23:46;;;;;;;21.27;12.80;;;10.40;1.00;;;;;;5032326;28;20954;-53
2022/06/22 04:26:11;;;;;;;17.67;12.53;;;10.50;1.00;;;;;;5033345;28;20441;-53
2022/06/22 04:28:41;;;;;;;22.83;14.73;;;10.70;1.00;;;;;;5033356;28;21209;-53
2022/06/22 04:31:13;;;;;;;22.20;13.90;;;10.80;1.00;;;;;;5035200;28;20286;-53
2022/06/22 04:33:48;;;;;;;24.13;13.73;;;10.90;1.00;;;;;;5033063;28;20791;-53
2022/06/22 04:36:23;;;;;;;26.93;13.50;;;11.10;1.00;;;;;;5032780;28;21022;-53
2022/06/22 04:38:57;;;;;;;24.10;15.13;;;11.30;1.00;;;;;;5033002;28;20433;-53
2022/06/22 04:41:32;;;;;;;22.47;13.53;;;11.50;99.90;;;;;;5033577;28;20473;-53
2022/06/22 04:44:04;;;;;;;21.63;12.23;;;11.80;1.00;;;;;;5034141;28;20444;-53
2022/06/22 04:46:34;;;;;;;19.60;13.10;;;12.00;99.90;;;;;;5032697;28;20497;-53
2022/06/22 04:49:18;;;;;;;19.20;13.23;;;12.30;1.00;;;;;;5032680;28;20426;-52
2022/06/22 04:51:53;;;;;;;22.20;11.77;;;12.50;1.00;;;;;;5032568;28;20484;-52
2022/06/22 04:54:25;;;;;;;15.13;10.80;;;12.80;1.00;;;;;;5024716;28;20501;-52
2022/06/22 04:56:53;;;;;;;17.47;10.80;;;13.00;1.00;;;;;;5029220;28;20453;-52
2022/06/22 04:59:20;;;;;;;17.67;10.93;;;13.20;99.90;;;;;;5032112;28;20441;-53
2022/06/22 05:01:55;;;;;;;16.80;10.63;;;13.30;1.00;;;;;;5028647;28;20548;-53
2022/06/22 05:04:29;;;;;;;14.77;10.17;;;13.50;99.90;;;;;;5028147;28;20441;-52
2022/06/22 05:07:09;;;;;;;15.60;10.70;;;13.70;99.90;;;;;;5031391;28;20430;-53
2022/06/22 05:09:46;;;;;;;11.33;8.63;;;13.90;1.00;;;;;;5031325;28;20480;-54
2022/06/22 05:12:19;;;;;;;16.87;8.50;;;14.10;99.90;;;;;;5031844;28;20437;-53
2022/06/22 05:14:45;;;;;;;11.10;8.27;;;14.30;99.90;;;;;;5029239;28;20456;-52
2022/06/22 05:17:37;;;;;;;11.23;7.43;;;14.50;99.90;;;;;;5029196;28;21006;-53
2022/06/22 05:20:23;;;;;;;13.43;7.63;;;14.80;1.00;;;;;;5028226;28;20923;-52
2022/06/22 05:22:50;;;;;;;10.83;7.67;;;14.90;1.00;;;;;;5023387;28;20481;-53
2022/06/22 05:25:17;;;;;;;12.70;7.70;;;15.10;1.00;;;;;;5030822;28;20440;-52
2022/06/22 05:28:01;;;;;;;11.50;6.77;;;15.30;1.00;;;;;;5027831;28;20449;-53
2022/06/22 05:30:32;;;;;;;8.43;6.23;;;15.40;1.00;;;;;;5029341;28;20434;-52
2022/06/22 05:33:07;;;;;;;14.30;7.33;;;15.70;1.00;;;;;;5029018;28;20966;-52
2022/06/22 05:35:37;;;;;;;12.63;6.63;;;15.70;1.00;;;;;;5030992;28;20928;-53
2022/06/22 05:38:07;;;;;;;9.10;6.33;;;15.80;1.00;;;;;;5030877;28;20575;-52
2022/06/22 05:40:34;;;;;;;12.37;6.43;;;16.00;1.00;;;;;;5029566;28;20465;-52
2022/06/22 05:43:00;;;;;;;13.83;6.77;;;16.20;1.00;;;;;;5030601;28;20620;-53
2022/06/22 05:45:36;;;;;;;10.03;6.90;;;16.30;1.00;;;;;;5019206;28;20589;-53
2022/06/22 05:48:02;;;;;;;10.93;6.17;;;16.50;1.00;;;;;;5030926;28;20225;-53
2022/06/22 05:50:40;;;;;;;11.03;5.83;;;16.70;99.90;;;;;;5031536;28;20477;-52
2022/06/22 05:53:49;;;;;;;9.27;6.10;;;16.80;99.90;;;;;;5032286;28;20190;-52
2022/06/22 05:56:25;;;;;;;14.67;6.67;;;16.80;99.90;;;;;;5030561;28;20449;-52
2022/06/22 05:59:00;;;;;;;26.43;8.00;;;17.00;99.90;;;;;;5027275;28;20454;-52
2022/06/22 06:01:51;;;;;;;9.07;5.80;;;17.20;99.90;;;;;;5016192;28;20535;-54
2022/06/22 06:04:42;;;;;;;14.27;5.20;;;17.50;99.90;;;;;;5027574;28;20770;-52
2022/06/22 06:07:17;;;;;;;11.47;5.20;;;17.70;99.90;;;;;;5026874;28;20445;-52
2022/06/22 06:09:43;;;;;;;12.17;5.37;;;17.90;99.90;;;;;;5030127;28;20499;-53
2022/06/22 06:12:40;;;;;;;8.87;5.70;;;18.10;99.90;;;;;;5031278;28;20422;-52
2022/06/22 06:15:09;;;;;;;14.33;5.90;;;18.00;99.90;;;;;;5030825;28;20989;-52
2022/06/22 06:17:42;;;;;;;12.33;6.30;;;18.10;99.90;;;;;;5022292;28;20945;-52
2022/06/22 06:20:28;;;;;;;7.37;6.10;;;18.30;99.90;;;;;;5031648;28;20452;-52
2022/06/22 06:22:57;;;;;;;12.93;6.60;;;18.40;99.90;;;;;;5025217;28;21273;-52
2022/06/22 06:28:20;;;;;;;9.37;5.03;;;18.70;99.90;;;;;;5028879;28;20588;-52
2022/06/22 06:30:49;;;;;;;7.20;5.10;;;19.10;99.90;;;;;;5029898;28;20445;-52
2022/06/22 06:33:36;;;;;;;10.30;4.90;;;19.20;99.90;;;;;;5030665;28;20793;-53
2022/06/22 06:36:22;;;;;;;14.83;5.60;;;19.30;99.90;;;;;;5022149;28;20495;-52
2022/06/22 06:39:14;;;;;;;11.20;5.40;;;19.40;99.90;;;;;;5031056;28;20555;-52
2022/06/22 06:42:03;;;;;;;7.60;5.17;;;19.40;99.90;;;;;;5029563;28;20978;-52
2022/06/22 06:44:41;;;;;;;10.73;5.33;;;19.50;99.90;;;;;;5029486;28;20476;-52
2022/06/22 06:47:15;;;;;;;11.30;5.37;;;19.50;99.90;;;;;;5025113;28;20446;-52
2022/06/22 06:49:50;;;;;;;10.77;5.00;;;19.70;99.90;;;;;;5030908;28;20406;-52
2022/06/22 06:52:33;;;;;;;12.67;5.20;;;19.70;99.90;;;;;;5028315;28;20417;-52
2022/06/22 06:55:01;;;;;;;15.43;5.60;;;19.80;99.90;;;;;;5030590;28;20426;-53
2022/06/22 06:57:29;;;;;;;13.57;5.33;;;19.90;99.90;;;;;;5031223;28;20418;-53
2022/06/22 06:59:58;;;;;;;9.90;5.23;;;19.90;99.90;;;;;;5037300;28;20417;-52
2022/06/22 07:02:38;;;;;;;9.90;5.70;;;20.10;99.90;;;;;;5031056;28;20548;-52
2022/06/22 07:05:07;;;;;;;12.77;6.00;;;20.20;99.90;;;;;;5027537;28;20406;-52
2022/06/22 07:07:39;;;;;;;8.60;5.23;;;20.20;99.90;;;;;;5022675;28;20489;-52
2022/06/22 07:10:21;;;;;;;7.83;5.13;;;20.30;99.90;;;;;;5030849;28;20404;-52
2022/06/22 07:13:02;;;;;;;13.10;5.80;;;20.40;99.90;;;;;;5030497;28;20767;-52
2022/06/22 07:15:36;;;;;;;12.93;5.90;;;20.60;99.90;;;;;;5026176;28;20429;-53
2022/06/22 07:18:31;;;;;;;7.10;5.17;;;21.00;99.90;;;;;;5026152;28;20413;-53
2022/06/22 07:21:20;;;;;;;10.50;4.93;;;21.20;99.90;;;;;;5023272;28;20465;-55
2022/06/22 07:23:52;;;;;;;6.00;4.87;;;21.50;99.90;;;;;;5023181;28;20425;-55
2022/06/22 07:26:40;;;;;;;9.90;5.40;;;21.80;99.90;;;;;;5020630;28;20404;-55
2022/06/22 07:29:23;;;;;;;9.40;6.60;;;22.10;99.90;;;;;;5030541;28;20418;-52
2022/06/22 07:32:18;;;;;;;10.33;6.03;;;22.30;99.90;;;;;;5030143;28;20433;-52
2022/06/22 07:35:00;;;;;;;10.33;6.00;;;22.20;99.90;;;;;;5028987;28;20563;-52
2022/06/22 07:37:38;;;;;;;14.20;7.00;;;22.00;99.90;;;;;;5029790;28;20433;-53
2022/06/22 07:40:13;;;;;;;13.53;7.03;;;22.10;99.90;;;;;;5029823;28;20788;-52
2022/06/22 07:42:40;;;;;;;10.20;6.30;;;22.30;99.90;;;;;;5027631;28;20515;-52
2022/06/22 07:45:12;;;;;;;9.20;5.80;;;22.40;99.90;;;;;;5030316;28;20474;-53
2022/06/22 07:47:51;;;;;;;7.83;5.63;;;22.50;99.90;;;;;;5021379;28;20808;-53
2022/06/22 07:50:24;;;;;;;8.97;5.87;;;22.80;99.90;;;;;;5030394;28;20414;-52
2022/06/22 07:52:59;;;;;;;12.17;6.03;;;23.20;99.90;;;;;;5030555;28;20539;-52
2022/06/22 07:55:31;;;;;;;12.03;5.73;;;23.50;99.90;;;;;;5028588;28;20918;-52
2022/06/22 07:58:18;;;;;;;13.30;6.20;;;23.40;99.90;;;;;;5029327;28;20512;-52
2022/06/22 08:00:47;;;;;;;11.93;5.70;;;23.30;99.90;;;;;;5029084;28;20508;-52
2022/06/22 08:03:32;;;;;;;7.13;4.90;;;23.20;99.90;;;;;;5029194;28;20798;-53
2022/06/22 08:06:03;;;;;;;13.43;5.63;;;23.40;99.90;;;;;;5021848;28;20422;-52
2022/06/22 08:08:48;;;;;;;11.50;6.67;;;23.70;99.90;;;;;;5029318;28;20492;-52
2022/06/22 08:11:35;;;;;;;13.67;6.70;;;23.70;99.90;;;;;;5029338;28;20465;-52
2022/06/22 08:14:26;;;;;;;12.97;5.73;;;23.40;99.90;;;;;;5026465;28;20472;-52
2022/06/22 08:17:00;;;;;;;9.20;5.77;;;23.40;99.90;;;;;;5027305;28;20441;-52
2022/06/22 08:19:31;;;;;;;10.87;5.67;;;23.60;99.90;;;;;;5030095;28;20457;-52
2022/06/22 08:22:01;;;;;;;9.83;6.03;;;24.00;99.90;;;;;;5024105;28;20986;-52
2022/06/22 08:24:30;;;;;;;8.00;5.53;;;24.10;99.90;;;;;;5032192;28;20425;-52
2022/06/22 08:26:58;;;;;;;11.03;5.57;;;24.20;99.90;;;;;;5026859;28;20942;-52
2022/06/22 08:29:24;;;;;;;11.17;6.20;;;24.30;99.90;;;;;;5029278;28;20438;-52
2022/06/22 08:32:00;;;;;;;8.77;5.60;;;24.20;99.90;;;;;;5027982;28;20441;-52
2022/06/22 08:34:42;;;;;;;9.07;5.40;;;24.40;99.90;;;;;;5021927;28;20186;-52
2022/06/22 08:37:16;;;;;;;14.57;6.50;;;24.90;99.90;;;;;;5027251;28;20441;-53
2022/06/22 08:39:53;;;;;;;9.87;5.60;;;25.10;99.90;;;;;;5028752;28;20982;-53
2022/06/22 08:42:47;;;;;;;9.20;5.43;;;25.00;99.90;;;;;;5027789;28;20966;-52
2022/06/22 08:45:35;;;;;;;7.67;4.70;;;25.30;99.90;;;;;;5028323;28;20477;-53
2022/06/22 08:48:17;;;;;;;8.40;5.37;;;25.50;99.90;;;;;;5028481;28;20461;-53
2022/06/22 08:51:32;;;;;;;7.00;5.53;;;25.40;99.90;;;;;;5030886;28;20437;-52
2022/06/22 08:54:12;;;;;;;9.70;5.57;;;25.40;99.90;;;;;;5016560;28;20449;-52
2022/06/22 08:57:08;;;;;;;13.60;6.07;;;25.70;99.90;;;;;;5031091;28;20436;-52
2022/06/22 08:59:45;;;;;;;7.47;5.07;;;26.20;99.90;;;;;;5026698;28;21010;-52
2022/06/22 09:02:38;;;;;;;14.47;5.30;;;25.80;99.90;;;;;;5030129;28;20504;-52
2022/06/22 09:05:22;;;;;;;8.90;6.37;;;25.20;99.90;;;;;;5031749;28;20449;-52
2022/06/22 09:07:56;;;;;;;8.87;5.70;;;24.50;99.90;;;;;;5027681;28;20472;-52
2022/06/22 09:10:33;;;;;;;15.60;7.80;;;24.40;99.90;;;;;;5030977;28;21007;-52
2022/06/22 09:13:21;;;;;;;12.70;6.27;;;23.70;99.90;;;;;;5032706;28;20445;-52
2022/06/22 09:16:25;;;;;;;12.63;6.40;;;23.30;99.90;;;;;;5033967;28;20449;-52
2022/06/22 09:19:17;;;;;;;13.57;6.83;;;22.60;99.90;;;;;;5029148;28;20484;-52
2022/06/22 09:22:25;;;;;;;13.10;7.20;;;23.10;99.90;;;;;;5034186;28;20480;-52
2022/06/22 09:25:07;;;;;;;10.10;6.90;;;24.30;99.90;;;;;;5032165;28;21727;-52
2022/06/22 09:27:44;;;;;;;7.73;6.40;;;25.40;99.90;;;;;;5034713;28;20473;-52
2022/06/22 09:30:33;;;;;;;7.83;5.93;;;25.50;99.90;;;;;;5035354;28;21227;-52
2022/06/22 09:33:17;;;;;;;14.73;6.00;;;25.10;99.90;;;;;;5035109;28;20854;-53
2022/06/22 09:36:04;;;;;;;9.20;5.50;;;24.40;99.90;;;;;;5033498;28;20417;-52
2022/06/22 09:38:36;;;;;;;8.63;6.23;;;24.10;99.90;;;;;;5035613;28;20418;-52
2022/06/22 09:41:04;;;;;;;8.83;5.73;;;24.70;99.90;;;;;;5029237;28;20472;-52
2022/06/22 09:44:05;;;;;;;8.60;5.83;;;25.20;99.90;;;;;;5034109;28;20532;-53
2022/06/22 09:46:52;;;;;;;10.60;5.60;;;25.60;99.90;;;;;;5030094;28;20425;-52
2022/06/22 09:49:46;;;;;;;8.97;5.67;;;26.20;99.90;;;;;;5033247;28;20432;-52
2022/06/22 09:52:33;;;;;;;7.00;5.23;;;26.60;99.90;;;;;;5032199;28;20426;-52
2022/06/22 09:58:17;;;;;;;6.80;4.90;;;27.60;99.90;;;;;;5026251;28;20455;-52
2022/06/22 10:00:47;;;;;;;10.63;6.13;;;27.50;99.90;;;;;;5030972;28;20973;-52
2022/06/22 10:03:16;;;;;;;7.90;5.40;;;27.50;99.90;;;;;;5034436;28;20744;-52
2022/06/22 10:06:20;;;;;;;6.90;4.80;;;27.70;99.90;;;;;;5034123;28;20938;-52
2022/06/22 10:09:20;;;;;;;9.43;5.37;;;27.70;99.90;;;;;;5026307;28;20445;-53
2022/06/22 10:12:09;;;;;;;9.20;5.13;;;27.80;99.90;;;;;;5033316;28;20464;-52
2022/06/22 10:14:41;;;;;;;8.13;4.50;;;27.10;99.90;;;;;;5029329;28;20776;-52
2022/06/22 10:17:28;;;;;;;8.07;5.00;;;26.10;99.90;;;;;;5034385;28;20469;-52
2022/06/22 10:20:03;;;;;;;9.90;5.40;;;26.40;99.90;;;;;;5031142;28;20441;-52
2022/06/22 10:22:38;;;;;;;9.37;4.43;;;27.00;99.90;;;;;;5032069;28;20475;-52
2022/06/22 10:25:16;;;;;;;11.40;5.30;;;27.60;99.90;;;;;;5032962;28;20444;-52
2022/06/22 10:27:56;;;;;;;13.57;4.80;;;27.70;99.90;;;;;;5029060;28;20520;-52
2022/06/22 10:30:40;;;;;;;6.90;4.10;;;27.90;99.90;;;;;;5031199;28;20414;-53
2022/06/22 10:33:05;;;;;;;8.77;4.17;;;28.40;99.90;;;;;;5030957;28;20942;-52
2022/06/22 10:35:57;;;;;;;7.13;4.77;;;28.50;99.90;;;;;;5031192;28;20900;-52
2022/06/22 10:38:46;;;;;;;6.17;4.00;;;28.40;99.90;;;;;;5030967;28;20195;-52
2022/06/22 10:47:55;;;;;;;7.53;3.63;;;29.00;99.90;;;;;;5028403;28;20773;-52
2022/06/22 10:50:41;;;;;;;4.60;4.20;;;29.20;99.90;;;;;;5029333;28;20452;-52
2022/06/22 10:53:20;;;;;;;7.07;3.60;;;29.00;99.90;;;;;;5031311;28;20426;-53
2022/06/22 10:55:48;;;;;;;5.10;3.70;;;29.00;99.90;;;;;;5030593;28;20491;-53
2022/06/22 10:58:47;;;;;;;7.20;3.87;;;29.10;99.90;;;;;;5029913;28;21112;-52
2022/06/22 11:01:46;;;;;;;4.93;3.90;;;29.30;99.90;;;;;;5024798;28;20501;-52
2022/06/22 11:04:42;;;;;;;7.10;4.37;;;29.60;99.90;;;;;;5028913;28;20434;-53
2022/06/22 11:07:19;;;;;;;7.97;3.60;;;30.00;99.90;;;;;;5030830;28;20924;-53
2022/06/22 11:10:05;;;;;;;9.13;4.40;;;30.00;99.90;;;;;;5029680;28;20417;-52
2022/06/22 11:12:48;;;;;;;6.40;4.10;;;29.80;99.90;;;;;;5030894;28;20412;-53
2022/06/22 11:15:33;;;;;;;8.83;4.73;;;29.90;99.90;;;;;;5029796;28;20825;-52
2022/06/22 11:18:23;;;;;;;5.17;3.53;;;29.90;99.90;;;;;;5025307;28;20433;-58
2022/06/22 11:21:18;;;;;;;6.60;3.40;;;29.80;99.90;;;;;;5029079;28;20469;-52
2022/06/22 11:23:53;;;;;;;5.83;3.50;;;29.90;99.90;;;;;;5029661;28;20426;-52
2022/06/22 11:33:28;;;;;;;5.50;3.63;;;29.60;99.90;;;;;;5030499;28;20421;-52
2022/06/22 11:36:12;;;;;;;7.00;4.50;;;29.70;99.90;;;;;;5030131;28;20544;-52
2022/06/22 11:39:25;;;;;;;7.10;4.20;;;29.80;99.90;;;;;;5029793;28;20417;-53
2022/06/22 11:42:00;;;;;;;5.83;4.30;;;29.80;99.90;;;;;;5026734;28;20534;-52
2022/06/22 11:48:20;;;;;;;6.93;3.67;;;30.30;99.90;;;;;;5022712;28;20424;-52
2022/06/22 11:50:59;;;;;;;7.23;4.03;;;30.60;99.90;;;;;;5022462;28;20820;-52
2022/06/22 11:53:38;;;;;;;5.53;3.77;;;30.30;99.90;;;;;;5023665;28;20891;-56
2022/06/22 11:56:25;;;;;;;5.00;3.60;;;30.40;99.90;;;;;;5030236;28;20405;-57
2022/06/22 11:59:03;;;;;;;4.70;3.67;;;30.50;99.90;;;;;;5025065;28;20435;-57
2022/06/22 12:01:52;;;;;;;7.47;4.00;;;30.50;99.90;;;;;;5028337;28;20472;-57
2022/06/22 12:04:38;;;;;;;5.83;3.10;;;30.50;99.90;;;;;;5027343;28;20686;-57
2022/06/22 12:07:32;;;;;;;5.77;3.47;;;30.70;99.90;;;;;;5026570;28;20430;-57
2022/06/22 12:10:16;;;;;;;4.80;3.40;;;30.90;99.90;;;;;;5026176;28;20437;-56
2022/06/22 12:13:02;;;;;;;9.67;3.80;;;30.70;99.90;;;;;;5023185;28;20441;-56
2022/06/22 12:15:47;;;;;;;4.03;2.90;;;30.30;99.90;;;;;;5025847;28;22235;-57
2022/06/22 12:18:21;;;;;;;5.20;3.50;;;30.00;99.90;;;;;;5028889;28;20433;-57
2022/06/22 12:20:55;;;;;;;6.30;3.50;;;30.20;99.90;;;;;;5031076;28;21033;-57
2022/06/22 12:23:57;;;;;;;3.40;3.03;;;30.50;99.90;;;;;;5032133;28;20425;-57
2022/06/22 12:26:35;;;;;;;5.03;2.70;;;30.80;99.90;;;;;;5034771;28;20402;-57
2022/06/22 12:29:10;;;;;;;6.93;3.20;;;30.90;99.90;;;;;;5026884;28;20445;-57
2022/06/22 12:31:43;;;;;;;6.77;3.03;;;31.00;99.90;;;;;;5030309;28;20447;-56
2022/06/22 12:34:25;;;;;;;3.97;2.90;;;30.70;99.90;;;;;;5029928;28;20477;-57
2022/06/22 12:36:57;;;;;;;2.87;2.43;;;30.80;99.90;;;;;;5031867;28;20416;-56
2022/06/22 12:39:45;;;;;;;3.53;2.53;;;30.90;99.90;;;;;;5031122;28;20780;-57
2022/06/22 12:42:55;;;;;;;3.20;2.87;;;30.90;99.90;;;;;;5029815;28;20620;-57
2022/06/22 12:46:15;;;;;;;4.07;3.00;;;30.60;99.90;;;;;;5028963;28;20492;-56
2022/06/22 12:49:23;;;;;;;5.53;2.57;;;30.40;99.90;;;;;;5004277;28;20452;-57
2022/06/22 12:52:28;;;;;;;3.70;2.80;;;30.50;99.90;;;;;;5031812;28;20433;-57
2022/06/22 12:55:14;;;;;;;4.00;2.97;;;30.40;99.90;;;;;;5028862;28;20441;-58
2022/06/22 12:57:56;;;;;;;8.37;3.37;;;30.40;99.90;;;;;;5030627;28;20532;-57
2022/06/22 13:00:23;;;;;;;6.07;2.70;;;30.50;99.90;;;;;;5030819;28;20919;-56
2022/06/22 13:02:52;;;;;;;3.80;2.50;;;30.70;99.90;;;;;;5027998;28;20452;-56
2022/06/22 13:05:21;;;;;;;3.87;2.80;;;30.70;99.90;;;;;;5029857;28;20441;-57
2022/06/22 13:07:59;;;;;;;4.87;2.83;;;30.70;99.90;;;;;;5031414;28;20434;-56
2022/06/22 13:10:28;;;;;;;5.20;2.50;;;30.60;99.90;;;;;;5031031;28;20438;-56
2022/06/22 13:13:17;;;;;;;7.73;2.40;;;30.90;99.90;;;;;;5028232;28;20474;-57
2022/06/22 13:15:56;;;;;;;3.93;2.20;;;30.80;99.90;;;;;;5030579;28;20455;-57
2022/06/22 13:18:26;;;;;;;6.27;2.90;;;30.90;99.90;;;;;;5031431;28;20483;-57
2022/06/22 13:21:07;;;;;;;3.83;2.33;;;30.90;99.90;;;;;;5030530;28;20786;-57
2022/06/22 13:23:43;;;;;;;2.10;1.90;;;30.60;99.90;;;;;;5030449;28;20438;-56
2022/06/22 13:26:30;;;;;;;4.83;2.13;;;30.60;99.90;;;;;;5030785;28;20865;-57
2022/06/22 13:29:02;;;;;;;4.40;2.10;;;30.20;99.90;;;;;;5029622;28;20448;-56
2022/06/22 13:31:35;;;;;;;4.33;2.00;;;29.90;99.90;;;;;;5047297;28;20429;-55
2022/06/22 13:34:06;;;;;;;3.47;2.00;;;30.20;99.90;;;;;;5032190;28;20414;-56
2022/06/22 13:36:41;;;;;;;6.53;2.50;;;30.30;99.90;;;;;;5031482;28;20807;-56
2022/06/22 13:39:28;;;;;;;5.27;2.20;;;30.60;99.90;;;;;;5032297;28;20413;-56
2022/06/22 13:42:12;;;;;;;5.60;2.90;;;30.70;99.90;;;;;;5029611;28;20475;-57
2022/06/22 13:44:43;;;;;;;5.27;2.50;;;30.50;99.90;;;;;;5028055;28;20604;-57
2022/06/22 13:47:27;;;;;;;5.23;2.50;;;30.20;99.90;;;;;;5029876;28;20439;-56
2022/06/22 13:52:47;;;;;;;3.80;1.90;;;29.80;99.90;;;;;;5028075;28;20906;-56
2022/06/22 13:55:22;;;;;;;5.47;2.47;;;29.80;99.90;;;;;;5028314;28;20483;-53
2022/06/22 13:57:51;;;;;;;3.80;2.07;;;29.90;99.90;;;;;;5020530;28;20503;-53
2022/06/22 14:00:32;;;;;;;3.90;2.10;;;30.20;99.90;;;;;;5029094;28;20437;-52
2022/06/22 14:03:22;;;;;;;6.40;3.00;;;30.70;99.90;;;;;;5032061;28;20469;-52
2022/06/22 14:05:53;;;;;;;4.10;2.50;;;30.50;99.90;;;;;;5031825;28;20471;-56
2022/06/22 14:08:44;;;;;;;4.20;2.30;;;30.30;99.90;;;;;;5030965;28;20436;-56
2022/06/22 14:11:13;;;;;;;3.27;2.23;;;30.20;99.90;;;;;;5027731;28;20540;-56
2022/06/22 14:14:01;;;;;;;5.37;2.40;;;29.90;99.90;;;;;;5034408;28;20460;-55
2022/06/22 14:17:01;;;;;;;2.97;2.10;;;30.00;99.90;;;;;;5033434;28;20440;-52